Time;durP1;ratioP1;P1;durP2;ratioP2;P2;SDS_P1;SDS_P2;PMS_P1;PMS_P2;Temp;Humidity;BMP_temperature;BMP_pressure;BME280_temperature;BME280_humidity;BME280_pressure;Samples;Min_cycle;Max_cycle;Signal;HPM_P1;HPM_P2
2023/03/22 00:02:33;;;;;;;9.25;5.53;;;8.70;86.90;;;;;;5010110;28;20133;-68
2023/03/22 00:05:08;;;;;;;8.98;5.47;;;8.70;86.90;;;;;;5012370;28;20046;-69
2023/03/22 00:07:42;;;;;;;9.43;5.63;;;8.70;86.90;;;;;;5007406;28;20061;-69
2023/03/22 00:10:16;;;;;;;9.27;5.40;;;8.70;86.90;;;;;;5012372;28;20481;-69
2023/03/22 00:12:49;;;;;;;10.35;6.03;;;8.70;87.00;;;;;;5010316;28;20045;-69
2023/03/22 00:15:23;;;;;;;10.75;5.85;;;8.70;87.00;;;;;;5009823;28;20428;-68
2023/03/22 00:17:57;;;;;;;10.25;6.03;;;8.70;87.00;;;;;;5013518;28;20045;-69
2023/03/22 00:20:35;;;;;;;9.55;5.78;;;8.60;87.20;;;;;;5012686;28;20522;-68
2023/03/22 00:23:09;;;;;;;10.23;5.50;;;8.60;87.20;;;;;;5033912;28;20570;-68
2023/03/22 00:25:43;;;;;;;11.65;6.43;;;8.70;87.20;;;;;;5034207;28;20480;-70
2023/03/22 00:28:17;;;;;;;10.20;5.45;;;8.60;87.10;;;;;;5035744;28;20087;-61
2023/03/22 00:30:52;;;;;;;10.45;5.78;;;8.60;87.10;;;;;;5034558;28;20045;-61
2023/03/22 00:33:27;;;;;;;11.40;5.85;;;8.60;87.10;;;;;;5013580;28;20053;-61
2023/03/22 00:36:05;;;;;;;9.57;5.43;;;8.60;87.10;;;;;;5034194;28;20079;-61
2023/03/22 00:38:38;;;;;;;9.23;5.40;;;8.50;87.10;;;;;;5031837;28;20076;-61
2023/03/22 00:41:13;;;;;;;9.57;5.68;;;8.50;87.20;;;;;;5035099;28;20471;-61
2023/03/22 00:43:47;;;;;;;8.65;5.70;;;8.50;87.10;;;;;;5034453;28;20140;-73
2023/03/22 00:46:21;;;;;;;10.18;5.90;;;8.50;87.00;;;;;;5033860;28;20053;-73
2023/03/22 00:48:55;;;;;;;9.95;6.03;;;8.50;86.90;;;;;;5034246;28;20062;-69
2023/03/22 00:51:29;;;;;;;10.82;6.38;;;8.50;86.80;;;;;;5031370;28;20049;-69
2023/03/22 00:54:03;;;;;;;9.38;6.07;;;8.50;86.80;;;;;;5034353;28;20052;-72
2023/03/22 00:56:44;;;;;;;10.73;6.63;;;8.50;86.80;;;;;;5015353;28;20044;-70
2023/03/22 00:59:18;;;;;;;10.20;6.10;;;8.50;86.80;;;;;;5025181;28;20064;-72
2023/03/22 01:01:52;;;;;;;11.05;6.68;;;8.40;86.70;;;;;;4987937;28;20147;-72
2023/03/22 01:04:25;;;;;;;10.98;6.90;;;8.30;86.80;;;;;;4989066;28;20049;-69
2023/03/22 01:07:02;;;;;;;10.15;5.90;;;8.30;86.90;;;;;;5014373;28;20384;-68
2023/03/22 01:09:36;;;;;;;9.98;6.13;;;8.30;86.80;;;;;;5012325;28;20475;-70
2023/03/22 01:12:10;;;;;;;9.95;6.15;;;8.20;86.70;;;;;;5024445;28;20518;-70
2023/03/22 01:14:44;;;;;;;8.82;5.40;;;8.20;86.60;;;;;;5009884;28;20058;-69
2023/03/22 01:17:18;;;;;;;9.15;5.60;;;8.20;86.70;;;;;;5020908;28;20049;-62
2023/03/22 01:19:51;;;;;;;9.13;5.88;;;8.10;86.70;;;;;;5011649;28;20063;-61
2023/03/22 01:22:25;;;;;;;9.00;5.82;;;8.10;86.70;;;;;;5001266;28;20464;-61
2023/03/22 01:24:59;;;;;;;9.70;5.70;;;8.10;86.80;;;;;;5007579;28;20049;-61
2023/03/22 01:27:33;;;;;;;9.90;5.72;;;8.10;86.60;;;;;;5011644;28;20045;-69
2023/03/22 01:30:07;;;;;;;9.35;5.57;;;8.10;86.60;;;;;;5011956;28;20042;-70
2023/03/22 01:32:41;;;;;;;8.02;5.35;;;8.00;86.60;;;;;;5013559;28;20358;-61
2023/03/22 01:35:14;;;;;;;8.20;5.47;;;8.00;86.50;;;;;;5027567;28;20601;-60
2023/03/22 01:37:49;;;;;;;8.52;5.65;;;8.00;86.30;;;;;;5019570;28;20049;-60
2023/03/22 01:40:23;;;;;;;8.30;5.20;;;8.00;86.30;;;;;;5007074;28;20049;-61
2023/03/22 01:42:57;;;;;;;8.98;5.32;;;8.00;86.10;;;;;;5030580;28;20050;-61
2023/03/22 01:45:39;;;;;;;8.77;5.50;;;7.90;86.00;;;;;;4994970;28;20056;-62
2023/03/22 01:48:19;;;;;;;7.70;4.82;;;7.90;86.20;;;;;;5009011;28;20057;-62
2023/03/22 01:51:03;;;;;;;9.70;5.10;;;7.90;86.20;;;;;;5016592;28;20494;-61
2023/03/22 01:53:50;;;;;;;7.10;4.97;;;8.00;85.50;;;;;;5016938;28;20049;-62
2023/03/22 01:56:33;;;;;;;8.45;5.03;;;8.00;85.80;;;;;;5008969;28;20111;-62
2023/03/22 01:59:19;;;;;;;8.80;5.13;;;7.90;85.60;;;;;;5014593;28;20053;-61
2023/03/22 02:02:17;;;;;;;8.80;5.57;;;7.90;85.60;;;;;;5014381;28;20357;-72
2023/03/22 02:04:58;;;;;;;8.00;4.97;;;7.90;85.80;;;;;;5013798;28;20135;-71
2023/03/22 02:07:32;;;;;;;7.38;4.80;;;7.80;85.90;;;;;;5030636;28;20055;-65
2023/03/22 02:10:11;;;;;;;7.43;4.70;;;7.90;85.90;;;;;;5025541;28;20068;-65
2023/03/22 02:13:10;;;;;;;7.97;4.50;;;7.80;85.80;;;;;;5015872;28;20052;-70
2023/03/22 02:15:58;;;;;;;7.68;4.70;;;7.70;85.80;;;;;;4995298;28;20064;-70
2023/03/22 02:18:53;;;;;;;8.98;5.03;;;7.70;85.90;;;;;;5016362;28;20069;-63
2023/03/22 02:21:54;;;;;;;7.10;4.47;;;7.70;85.80;;;;;;5017241;28;20456;-65
2023/03/22 02:24:54;;;;;;;7.60;4.63;;;7.70;85.90;;;;;;5012179;28;20579;-63
2023/03/22 02:27:50;;;;;;;;;;;7.70;85.80;;;;;;5015704;28;20458;-62
2023/03/22 02:30:55;;;;;;;8.18;4.82;;;7.70;85.70;;;;;;5011431;28;19929;-62
2023/03/22 02:33:47;;;;;;;8.05;4.45;;;7.70;85.90;;;;;;4947990;28;20638;-61
2023/03/22 02:36:41;;;;;;;8.35;4.20;;;7.70;86.00;;;;;;5033592;28;20064;-60
2023/03/22 02:39:30;;;;;;;8.30;4.85;;;7.70;86.00;;;;;;5015986;28;20111;-61
2023/03/22 02:42:16;;;;;;;7.78;4.32;;;7.70;85.90;;;;;;5034969;28;20053;-62
2023/03/22 02:44:58;;;;;;;8.30;4.65;;;7.70;86.00;;;;;;5029663;28;20138;-60
2023/03/22 02:47:39;;;;;;;8.23;4.68;;;7.70;86.10;;;;;;5032345;28;20045;-69
2023/03/22 02:50:18;;;;;;;7.93;4.30;;;7.70;86.10;;;;;;5011315;28;20076;-70
2023/03/22 02:52:57;;;;;;;7.85;4.70;;;7.60;86.10;;;;;;5015881;28;20041;-62
2023/03/22 02:55:44;;;;;;;8.50;4.68;;;7.60;86.10;;;;;;5024594;28;20441;-61
2023/03/22 02:58:26;;;;;;;7.32;4.65;;;7.60;86.10;;;;;;5009809;28;20631;-61
2023/03/22 03:01:04;;;;;;;8.13;4.78;;;7.60;86.10;;;;;;5006505;28;20109;-61
2023/03/22 03:03:39;;;;;;;7.55;4.22;;;7.60;86.10;;;;;;5009205;28;20043;-68
2023/03/22 03:06:17;;;;;;;7.65;4.05;;;7.60;86.10;;;;;;5011836;28;20046;-69
2023/03/22 03:08:53;;;;;;;7.05;3.88;;;7.60;86.00;;;;;;5009085;28;20408;-72
2023/03/22 03:11:28;;;;;;;7.10;4.10;;;7.60;86.10;;;;;;5015521;28;20556;-70
2023/03/22 03:14:02;;;;;;;8.45;4.70;;;7.60;86.10;;;;;;5009473;28;20147;-64
2023/03/22 03:16:35;;;;;;;8.25;4.47;;;7.60;86.00;;;;;;5021324;28;20107;-65
2023/03/22 03:19:18;;;;;;;7.07;4.30;;;7.60;86.10;;;;;;5028366;28;20152;-61
2023/03/22 03:21:58;;;;;;;7.25;4.25;;;7.60;86.00;;;;;;4996746;28;20046;-62
2023/03/22 03:24:37;;;;;;;9.05;4.68;;;7.50;86.00;;;;;;5015052;28;20577;-61
2023/03/22 03:27:18;;;;;;;7.38;4.60;;;7.60;85.90;;;;;;5007995;28;20381;-60
2023/03/22 03:29:58;;;;;;;9.93;4.80;;;7.60;85.60;;;;;;4996656;28;20595;-62
2023/03/22 03:32:40;;;;;;;8.05;4.70;;;7.70;85.30;;;;;;5011984;28;20334;-68
2023/03/22 03:35:22;;;;;;;7.78;4.93;;;7.60;85.30;;;;;;5015626;28;20064;-67
2023/03/22 03:38:00;;;;;;;7.57;4.57;;;7.50;85.40;;;;;;5003552;28;20139;-61
2023/03/22 03:40:37;;;;;;;7.68;4.82;;;7.50;85.40;;;;;;5012893;28;20073;-62
2023/03/22 03:43:13;;;;;;;7.63;4.80;;;7.50;85.50;;;;;;5007758;28;20063;-69
2023/03/22 03:45:47;;;;;;;10.15;5.20;;;7.50;85.50;;;;;;5012342;28;20441;-69
2023/03/22 03:48:23;;;;;;;7.78;5.10;;;7.50;85.40;;;;;;4999527;28;20374;-61
2023/03/22 03:50:58;;;;;;;8.75;5.43;;;7.40;85.50;;;;;;5031105;28;20049;-62
2023/03/22 03:53:31;;;;;;;8.23;4.75;;;7.40;85.40;;;;;;5013545;28;20049;-68
2023/03/22 03:56:12;;;;;;;9.38;5.03;;;7.40;85.50;;;;;;5007980;28;20064;-70
2023/03/22 03:58:48;;;;;;;7.35;4.53;;;7.30;85.50;;;;;;5007214;28;20120;-62
2023/03/22 04:01:22;;;;;;;7.82;4.65;;;7.30;85.40;;;;;;5016549;28;20056;-62
2023/03/22 04:04:14;;;;;;;8.90;5.15;;;7.20;85.40;;;;;;5011084;28;20049;-62
2023/03/22 04:06:51;;;;;;;8.02;4.68;;;7.20;85.40;;;;;;5014210;28;20041;-61
2023/03/22 04:09:29;;;;;;;8.48;5.10;;;7.20;85.40;;;;;;5010915;28;20167;-61
2023/03/22 04:12:15;;;;;;;10.02;4.60;;;7.20;85.30;;;;;;4993845;28;20045;-61
2023/03/22 04:15:12;;;;;;;6.68;4.25;;;7.20;85.20;;;;;;4987553;28;20520;-60
2023/03/22 04:17:58;;;;;;;8.13;4.30;;;7.10;85.20;;;;;;4992153;28;20100;-69
2023/03/22 04:20:32;;;;;;;6.80;4.00;;;7.10;85.20;;;;;;5010856;28;20048;-69
2023/03/22 04:23:05;;;;;;;6.68;3.90;;;7.10;85.20;;;;;;5013936;28;20421;-71
2023/03/22 04:25:38;;;;;;;6.93;3.78;;;7.10;85.30;;;;;;5004943;28;20497;-72
2023/03/22 04:28:12;;;;;;;6.78;4.13;;;7.00;85.30;;;;;;5009988;28;20060;-61
2023/03/22 04:30:50;;;;;;;6.45;3.80;;;6.90;85.50;;;;;;5013660;28;20041;-61
2023/03/22 04:33:46;;;;;;;7.72;4.30;;;7.00;85.30;;;;;;5032807;28;20046;-70
2023/03/22 04:36:30;;;;;;;8.38;4.95;;;6.90;85.50;;;;;;5015232;28;20099;-70
2023/03/22 04:39:13;;;;;;;8.98;4.78;;;7.00;85.30;;;;;;5024580;28;20132;-72
2023/03/22 04:41:56;;;;;;;9.98;4.82;;;7.00;85.40;;;;;;5003264;28;20050;-70
2023/03/22 04:44:30;;;;;;;7.53;4.68;;;6.90;85.50;;;;;;5004705;28;20053;-71
2023/03/22 04:47:05;;;;;;;8.90;5.38;;;7.00;85.50;;;;;;4995950;28;20489;-62
2023/03/22 04:49:39;;;;;;;8.32;4.80;;;6.90;85.60;;;;;;5011760;28;20041;-61
2023/03/22 04:52:15;;;;;;;10.68;4.97;;;6.90;85.70;;;;;;5006527;28;20050;-64
2023/03/22 04:54:55;;;;;;;7.97;4.70;;;6.80;85.70;;;;;;5011844;28;20049;-63
2023/03/22 04:57:34;;;;;;;10.50;5.13;;;6.90;85.70;;;;;;4992764;28;20136;-61
2023/03/22 05:00:09;;;;;;;7.25;4.07;;;6.80;85.60;;;;;;5008450;28;20054;-61
2023/03/22 05:02:44;;;;;;;8.90;4.40;;;6.80;85.60;;;;;;5010200;28;20793;-61
2023/03/22 05:05:26;;;;;;;6.97;4.45;;;6.80;85.50;;;;;;5023999;28;20041;-60
2023/03/22 05:08:02;;;;;;;7.45;4.50;;;6.70;85.50;;;;;;5013567;28;20058;-61
2023/03/22 05:10:39;;;;;;;7.32;4.43;;;6.70;85.30;;;;;;5032279;28;20123;-61
2023/03/22 05:13:13;;;;;;;7.18;4.35;;;6.70;85.40;;;;;;5032529;28;20064;-61
2023/03/22 05:15:48;;;;;;;7.72;4.53;;;6.70;85.40;;;;;;5011108;28;20046;-61
2023/03/22 05:18:31;;;;;;;6.70;3.92;;;6.70;85.30;;;;;;5009103;28;20049;-62
2023/03/22 05:21:07;;;;;;;6.90;3.95;;;6.70;85.30;;;;;;5016839;28;20145;-60
2023/03/22 05:23:42;;;;;;;7.50;3.90;;;6.70;85.30;;;;;;5016921;28;20060;-61
2023/03/22 05:26:19;;;;;;;7.95;4.22;;;6.70;85.40;;;;;;5008027;28;20133;-62
2023/03/22 05:28:53;;;;;;;7.40;4.53;;;6.70;85.30;;;;;;5016593;28;20060;-72
2023/03/22 05:31:37;;;;;;;6.38;4.03;;;6.70;85.30;;;;;;5017413;28;20050;-72
2023/03/22 05:34:12;;;;;;;7.35;4.10;;;6.70;85.40;;;;;;5012636;28;20150;-69
2023/03/22 05:36:46;;;;;;;6.95;3.88;;;6.70;85.50;;;;;;4999053;28;20088;-69
2023/03/22 05:39:30;;;;;;;7.05;4.05;;;6.70;85.60;;;;;;4986034;28;20050;-69
2023/03/22 05:42:03;;;;;;;6.72;3.90;;;6.70;85.80;;;;;;4994558;28;20441;-63
2023/03/22 05:44:37;;;;;;;7.82;4.38;;;6.70;85.80;;;;;;5006108;28;20060;-65
2023/03/22 05:47:13;;;;;;;7.22;4.32;;;6.70;85.90;;;;;;5013159;28;20102;-61
2023/03/22 05:50:02;;;;;;;7.57;4.15;;;6.70;85.90;;;;;;5030371;28;20041;-61
2023/03/22 05:52:36;;;;;;;7.82;4.47;;;6.70;85.90;;;;;;5034453;28;20110;-62
2023/03/22 05:55:30;;;;;;;7.32;4.00;;;6.70;86.10;;;;;;5029374;28;20045;-62
2023/03/22 05:58:17;;;;;;;7.55;4.05;;;6.70;86.20;;;;;;5009903;28;20068;-62
2023/03/22 06:00:53;;;;;;;6.63;3.88;;;6.70;86.10;;;;;;5015462;28;20519;-62
2023/03/22 06:03:26;;;;;;;9.60;4.50;;;6.80;86.20;;;;;;5033391;28;20493;-68
2023/03/22 06:06:10;;;;;;;7.22;4.28;;;6.80;86.10;;;;;;5012643;28;20492;-69
2023/03/22 06:09:01;;;;;;;7.80;4.78;;;6.80;86.20;;;;;;4995716;28;20133;-63
2023/03/22 06:11:34;;;;;;;7.82;3.83;;;6.90;86.20;;;;;;5009194;28;20038;-63
2023/03/22 06:14:08;;;;;;;7.28;3.83;;;6.80;86.20;;;;;;4993843;28;20057;-61
2023/03/22 06:16:55;;;;;;;6.22;3.67;;;6.90;86.10;;;;;;5031669;28;20072;-62
2023/03/22 06:19:29;;;;;;;6.03;3.50;;;6.90;86.10;;;;;;5030650;28;20385;-61
2023/03/22 06:22:06;;;;;;;8.05;3.90;;;6.90;86.20;;;;;;5009714;28;20063;-61
2023/03/22 06:24:41;;;;;;;6.55;3.75;;;6.90;86.20;;;;;;5010185;28;20061;-61
2023/03/22 06:27:20;;;;;;;6.47;3.78;;;7.00;86.20;;;;;;5011835;28;20058;-61
2023/03/22 06:29:54;;;;;;;5.90;3.08;;;7.00;86.10;;;;;;5004884;28;20092;-60
2023/03/22 06:32:30;;;;;;;5.32;3.47;;;7.00;86.10;;;;;;5013118;28;20510;-61
2023/03/22 06:35:07;;;;;;;6.28;3.72;;;7.00;86.20;;;;;;5006090;28;20171;-61
2023/03/22 06:37:42;;;;;;;7.65;3.80;;;7.10;86.00;;;;;;5013881;28;20052;-60
2023/03/22 06:40:16;;;;;;;7.75;4.15;;;7.10;85.90;;;;;;5036215;28;20045;-60
2023/03/22 06:42:49;;;;;;;6.32;3.58;;;7.20;86.00;;;;;;5031366;28;20080;-61
2023/03/22 06:45:23;;;;;;;7.00;4.22;;;7.10;86.00;;;;;;5024920;28;20408;-61
2023/03/22 06:47:57;;;;;;;5.70;3.35;;;7.20;85.90;;;;;;5007345;28;20124;-60
2023/03/22 06:50:49;;;;;;;7.32;4.30;;;7.20;86.00;;;;;;5030582;28;20495;-61
2023/03/22 06:53:32;;;;;;;7.10;4.30;;;7.20;86.00;;;;;;5036925;28;20077;-63
2023/03/22 06:56:06;;;;;;;7.68;4.03;;;7.30;86.20;;;;;;5016710;28;20049;-64
2023/03/22 06:58:57;;;;;;;8.18;4.55;;;7.30;86.10;;;;;;5006237;28;20057;-60
2023/03/22 07:01:30;;;;;;;9.80;5.35;;;7.40;85.60;;;;;;5013725;28;20129;-61
2023/03/22 07:04:03;;;;;;;7.97;4.70;;;7.40;85.60;;;;;;5010446;28;20045;-59
2023/03/22 07:06:37;;;;;;;7.65;4.70;;;7.50;85.70;;;;;;4993470;28;20046;-62
2023/03/22 07:09:13;;;;;;;9.15;4.90;;;7.60;85.60;;;;;;5014126;28;20103;-59
2023/03/22 07:11:48;;;;;;;7.38;4.40;;;7.60;85.60;;;;;;5005887;28;20049;-61
2023/03/22 07:14:23;;;;;;;6.80;4.07;;;7.70;85.60;;;;;;5016376;28;20088;-60
2023/03/22 07:17:07;;;;;;;8.57;4.07;;;7.70;85.80;;;;;;5005985;28;20045;-60
2023/03/22 07:19:41;;;;;;;6.95;3.58;;;7.70;85.70;;;;;;5023805;28;20065;-59
2023/03/22 07:22:15;;;;;;;7.22;4.03;;;7.80;85.80;;;;;;5013337;28;20140;-59
2023/03/22 07:24:53;;;;;;;7.65;4.38;;;7.80;85.60;;;;;;5014684;28;20128;-59
2023/03/22 07:27:29;;;;;;;8.88;5.20;;;7.80;85.40;;;;;;5032621;28;20132;-60
2023/03/22 07:30:03;;;;;;;17.00;6.72;;;7.80;85.50;;;;;;4996175;28;20056;-60
2023/03/22 07:32:40;;;;;;;10.10;5.53;;;7.90;85.20;;;;;;5011890;28;20049;-58
2023/03/22 07:35:15;;;;;;;11.65;5.07;;;7.90;85.30;;;;;;5008254;28;20053;-59
2023/03/22 07:37:49;;;;;;;8.40;4.88;;;8.00;85.70;;;;;;5011897;28;20072;-61
2023/03/22 07:40:30;;;;;;;8.32;4.70;;;8.10;85.70;;;;;;4995089;28;20060;-61
2023/03/22 07:43:04;;;;;;;10.63;5.03;;;8.10;85.60;;;;;;4994534;28;20398;-59
2023/03/22 07:45:55;;;;;;;7.47;4.10;;;8.20;85.30;;;;;;5009715;28;20133;-61
2023/03/22 07:48:41;;;;;;;7.38;4.20;;;8.30;85.70;;;;;;5032159;28;20464;-61
2023/03/22 07:51:38;;;;;;;6.25;3.95;;;8.40;85.60;;;;;;4996230;28;20404;-60
2023/03/22 07:54:13;;;;;;;6.63;4.18;;;8.50;85.50;;;;;;5014071;28;20056;-60
2023/03/22 07:56:55;;;;;;;9.48;4.85;;;8.60;85.50;;;;;;5009643;28;20041;-60
2023/03/22 07:59:30;;;;;;;8.48;4.50;;;8.60;85.30;;;;;;5030977;28;20128;-61
2023/03/22 08:02:03;;;;;;;9.00;4.32;;;8.60;85.50;;;;;;5012631;28;20432;-60
2023/03/22 08:04:42;;;;;;;7.60;3.95;;;8.70;85.40;;;;;;5006248;28;20049;-60
2023/03/22 08:07:36;;;;;;;8.40;4.10;;;8.80;85.40;;;;;;5032774;28;20058;-61
2023/03/22 08:10:11;;;;;;;7.28;4.18;;;8.90;85.40;;;;;;5009539;28;20052;-61
2023/03/22 08:12:46;;;;;;;7.63;4.45;;;8.90;85.80;;;;;;5007166;28;20342;-64
2023/03/22 08:15:23;;;;;;;6.82;3.88;;;9.00;85.70;;;;;;5010948;28;20060;-64
2023/03/22 08:17:58;;;;;;;9.35;4.50;;;9.10;85.70;;;;;;5026085;28;20703;-61
2023/03/22 08:20:38;;;;;;;8.85;5.20;;;9.10;85.50;;;;;;4985933;28;20045;-62
2023/03/22 08:23:17;;;;;;;10.27;6.03;;;9.20;85.80;;;;;;4995930;28;20060;-62
2023/03/22 08:26:11;;;;;;;10.15;6.05;;;9.20;85.70;;;;;;5027788;28;20510;-62
2023/03/22 08:28:46;;;;;;;9.75;5.97;;;9.30;86.10;;;;;;5005758;28;20053;-60
2023/03/22 08:31:21;;;;;;;10.10;5.53;;;9.40;85.90;;;;;;5022102;28;20140;-61
2023/03/22 08:33:54;;;;;;;8.23;4.68;;;9.60;85.80;;;;;;5007518;28;20044;-70
2023/03/22 08:36:28;;;;;;;8.63;4.97;;;9.70;85.50;;;;;;5006959;28;20037;-68
2023/03/22 08:39:04;;;;;;;7.90;4.50;;;9.90;85.30;;;;;;5023566;28;20048;-64
2023/03/22 08:41:48;;;;;;;7.47;4.35;;;10.10;84.90;;;;;;5008073;28;20128;-63
2023/03/22 08:44:25;;;;;;;7.93;4.40;;;10.30;84.70;;;;;;4990899;28;21452;-63
2023/03/22 08:47:01;;;;;;;8.02;4.30;;;10.50;84.50;;;;;;5003802;28;20053;-63
2023/03/22 08:49:34;;;;;;;9.80;4.20;;;10.70;84.10;;;;;;4991602;28;20050;-64
2023/03/22 08:52:15;;;;;;;7.43;3.90;;;10.80;83.80;;;;;;4996101;28;20065;-68
2023/03/22 08:55:07;;;;;;;9.48;4.15;;;11.00;83.70;;;;;;5026203;28;20076;-68
2023/03/22 08:58:23;;;;;;;7.88;3.58;;;11.10;84.00;;;;;;5029131;28;20540;-70
2023/03/22 09:01:19;;;;;;;7.35;2.95;;;11.20;84.00;;;;;;5013613;28;20053;-60
2023/03/22 09:03:58;;;;;;;6.68;2.47;;;11.50;83.80;;;;;;5011089;28;20413;-60
2023/03/22 09:06:32;;;;;;;5.00;1.90;;;11.50;83.30;;;;;;5011345;28;20514;-71
2023/03/22 09:09:06;;;;;;;8.13;2.10;;;11.70;82.80;;;;;;5032097;28;20128;-70
2023/03/22 09:11:41;;;;;;;5.95;2.05;;;11.70;82.60;;;;;;5008053;28;20052;-70
2023/03/22 09:14:15;;;;;;;5.22;1.90;;;11.70;82.50;;;;;;5032566;28;20049;-70
2023/03/22 09:16:50;;;;;;;4.85;1.88;;;11.80;81.90;;;;;;5008905;28;20053;-61
2023/03/22 09:19:24;;;;;;;3.83;1.48;;;11.80;81.80;;;;;;5011127;28;20334;-60
2023/03/22 09:21:58;;;;;;;6.57;1.98;;;11.90;81.70;;;;;;5011144;28;20152;-60
2023/03/22 09:24:40;;;;;;;4.57;1.20;;;12.10;80.80;;;;;;5011654;28;20052;-60
2023/03/22 09:27:14;;;;;;;3.50;1.02;;;12.20;79.90;;;;;;5022696;28;20053;-60
2023/03/22 09:29:49;;;;;;;1.85;0.80;;;12.20;79.50;;;;;;5013963;28;20048;-60
2023/03/22 09:32:25;;;;;;;3.90;1.00;;;12.20;79.30;;;;;;5010626;28;20121;-60
2023/03/22 09:35:01;;;;;;;4.43;1.20;;;12.20;78.80;;;;;;5014888;28;20136;-61
2023/03/22 09:37:58;;;;;;;4.30;1.08;;;12.20;78.40;;;;;;5008542;28;20085;-61
2023/03/22 09:40:33;;;;;;;3.97;1.20;;;12.20;78.30;;;;;;5016241;28;20049;-69
2023/03/22 09:43:12;;;;;;;3.75;1.13;;;12.20;77.60;;;;;;5030278;28;20128;-67
2023/03/22 09:45:50;;;;;;;3.92;1.30;;;12.30;77.30;;;;;;5029341;28;20473;-67
2023/03/22 09:48:29;;;;;;;3.03;0.98;;;12.40;76.90;;;;;;5030576;28;20077;-68
2023/03/22 09:51:06;;;;;;;2.33;0.82;;;12.50;77.00;;;;;;5029348;28;20478;-70
2023/03/22 09:53:40;;;;;;;3.58;1.20;;;12.60;76.50;;;;;;5025779;28;20146;-69
2023/03/22 09:56:25;;;;;;;3.47;0.75;;;12.60;76.10;;;;;;5024756;28;20053;-67
2023/03/22 09:59:07;;;;;;;3.50;0.70;;;12.70;75.40;;;;;;5014315;28;20062;-66
2023/03/22 10:01:47;;;;;;;3.88;1.00;;;12.80;75.00;;;;;;5014075;28;20054;-62
2023/03/22 10:04:43;;;;;;;1.67;0.63;;;12.90;74.90;;;;;;5012148;28;20049;-62
2023/03/22 10:07:27;;;;;;;3.38;0.77;;;13.00;74.80;;;;;;5012289;28;20064;-62
2023/03/22 10:10:16;;;;;;;2.17;0.60;;;13.20;74.00;;;;;;5032385;28;20122;-61
2023/03/22 10:12:56;;;;;;;4.75;0.85;;;13.40;73.90;;;;;;5032560;28;20372;-71
2023/03/22 10:15:34;;;;;;;4.00;0.75;;;13.50;73.80;;;;;;5011847;28;20208;-67
2023/03/22 10:18:11;;;;;;;2.67;1.40;;;13.60;73.30;;;;;;5028750;28;20053;-66
2023/03/22 10:20:55;;;;;;;2.72;0.68;;;13.60;72.70;;;;;;5027092;28;20050;-62
2023/03/22 10:23:35;;;;;;;5.50;0.70;;;13.60;72.50;;;;;;5031972;28;20388;-62
2023/03/22 10:26:11;;;;;;;3.03;0.75;;;13.60;72.30;;;;;;5033116;28;20072;-63
2023/03/22 10:28:59;;;;;;;2.00;0.70;;;13.60;72.30;;;;;;5013648;28;20041;-61
2023/03/22 10:31:34;;;;;;;1.35;0.60;;;13.50;71.70;;;;;;5015274;28;20172;-61
2023/03/22 10:34:15;;;;;;;2.00;0.60;;;13.70;71.50;;;;;;5009891;28;20053;-62
2023/03/22 10:36:51;;;;;;;2.63;0.70;;;13.70;70.90;;;;;;5015826;28;20123;-62
2023/03/22 10:39:32;;;;;;;2.38;0.80;;;14.00;70.90;;;;;;5015118;28;20041;-62
2023/03/22 10:42:11;;;;;;;3.78;0.70;;;14.10;70.90;;;;;;5014547;28;20896;-62
2023/03/22 10:44:49;;;;;;;1.63;0.70;;;14.10;70.80;;;;;;5010517;28;20079;-62
2023/03/22 10:47:30;;;;;;;4.25;0.90;;;14.00;70.30;;;;;;5009859;28;20052;-63
2023/03/22 10:50:09;;;;;;;2.10;0.70;;;14.00;70.50;;;;;;5013306;28;20054;-62
2023/03/22 10:52:51;;;;;;;1.70;0.50;;;14.00;70.30;;;;;;5008235;28;20489;-63
2023/03/22 10:55:24;;;;;;;2.45;0.82;;;14.10;70.10;;;;;;5006068;28;20123;-62
2023/03/22 10:58:12;;;;;;;0.90;0.60;;;14.10;69.80;;;;;;4995778;28;20058;-62
2023/03/22 11:00:47;;;;;;;4.13;0.90;;;14.20;70.20;;;;;;4990784;28;20212;-62
2023/03/22 11:03:28;;;;;;;1.38;0.60;;;14.20;70.40;;;;;;4993435;28;20095;-62
2023/03/22 11:06:05;;;;;;;2.28;0.90;;;14.30;70.00;;;;;;4993092;28;20058;-71
2023/03/22 11:08:42;;;;;;;1.35;0.70;;;14.30;69.60;;;;;;4995707;28;20102;-70
2023/03/22 11:11:19;;;;;;;2.35;0.70;;;14.30;69.30;;;;;;4991099;28;20441;-70
2023/03/22 11:14:01;;;;;;;2.97;0.90;;;14.40;69.10;;;;;;4993977;28;20049;-71
2023/03/22 11:16:42;;;;;;;1.00;0.50;;;14.40;69.00;;;;;;4995979;28;20050;-67
2023/03/22 11:19:24;;;;;;;5.13;0.68;;;14.40;68.10;;;;;;4993030;28;20046;-67
2023/03/22 11:21:59;;;;;;;2.85;0.73;;;14.40;68.60;;;;;;4991527;28;20054;-69
2023/03/22 11:24:34;;;;;;;2.75;0.90;;;14.40;68.10;;;;;;4996163;28;20132;-69
2023/03/22 11:27:18;;;;;;;3.10;0.98;;;14.50;68.80;;;;;;4990654;28;20061;-69
2023/03/22 11:29:54;;;;;;;1.88;0.80;;;14.50;68.80;;;;;;4991032;28;20355;-68
2023/03/22 11:32:29;;;;;;;1.80;0.80;;;14.60;68.70;;;;;;4992916;28;20157;-66
2023/03/22 11:35:21;;;;;;;3.13;0.70;;;14.60;68.50;;;;;;4993873;28;20043;-67
2023/03/22 11:38:02;;;;;;;2.22;0.90;;;14.60;68.30;;;;;;4993312;28;20058;-63
2023/03/22 11:40:47;;;;;;;3.05;0.75;;;14.70;68.30;;;;;;4995353;28;20607;-71
2023/03/22 11:43:24;;;;;;;1.88;0.80;;;14.70;68.20;;;;;;4992551;28;20046;-70
2023/03/22 11:45:59;;;;;;;4.25;1.10;;;14.80;68.40;;;;;;4990839;28;20427;-60
2023/03/22 11:48:35;;;;;;;2.55;0.80;;;14.80;68.40;;;;;;4993460;28;20050;-62
2023/03/22 11:51:11;;;;;;;2.05;0.95;;;14.90;67.90;;;;;;4979457;28;20476;-62
2023/03/22 11:53:47;;;;;;;3.83;0.90;;;14.90;68.00;;;;;;4989837;28;20148;-63
2023/03/22 11:56:28;;;;;;;2.15;1.20;;;14.90;68.10;;;;;;4998330;28;20061;-62
2023/03/22 11:59:15;;;;;;;3.10;0.93;;;14.80;67.80;;;;;;5017701;28;20486;-62
2023/03/22 12:01:54;;;;;;;5.35;1.63;;;14.90;68.00;;;;;;5013691;28;20053;-62
2023/03/22 12:04:31;;;;;;;2.60;1.08;;;14.90;68.50;;;;;;5006813;28;20049;-62
2023/03/22 12:07:11;;;;;;;3.83;1.00;;;15.10;68.30;;;;;;5013468;28;20408;-62
2023/03/22 12:09:52;;;;;;;2.08;0.77;;;15.20;67.50;;;;;;5012559;28;20053;-62
2023/03/22 12:12:30;;;;;;;1.83;0.73;;;15.30;67.00;;;;;;5014354;28;20046;-62
2023/03/22 12:15:07;;;;;;;2.50;0.90;;;15.30;66.10;;;;;;5013820;28;20065;-63
2023/03/22 12:17:48;;;;;;;2.33;0.98;;;15.40;66.00;;;;;;5014824;28;20044;-62
2023/03/22 12:20:37;;;;;;;3.95;0.95;;;15.50;65.90;;;;;;5012581;28;20129;-62
2023/03/22 12:23:15;;;;;;;2.95;0.80;;;15.60;65.60;;;;;;5022570;28;20136;-62
2023/03/22 12:25:53;;;;;;;3.28;0.80;;;15.70;65.10;;;;;;5033102;28;20045;-60
2023/03/22 12:28:33;;;;;;;2.65;0.80;;;15.70;64.30;;;;;;5032291;28;20053;-63
2023/03/22 12:31:10;;;;;;;2.00;0.73;;;15.70;64.40;;;;;;5033783;28;20470;-67
2023/03/22 12:33:47;;;;;;;2.03;0.70;;;15.70;64.10;;;;;;5033281;28;20048;-69
2023/03/22 12:36:29;;;;;;;1.45;0.70;;;15.70;64.20;;;;;;5028613;28;20037;-62
2023/03/22 12:39:06;;;;;;;2.20;0.70;;;15.80;63.50;;;;;;5031359;28;20480;-61
2023/03/22 12:41:45;;;;;;;3.10;0.82;;;15.90;63.50;;;;;;5030302;28;20055;-63
2023/03/22 12:44:26;;;;;;;1.88;0.77;;;15.90;63.20;;;;;;5031756;28;20151;-64
2023/03/22 12:47:05;;;;;;;1.85;0.70;;;15.90;63.00;;;;;;5031968;28;20056;-62
2023/03/22 12:49:41;;;;;;;2.40;0.70;;;15.90;63.50;;;;;;5008785;28;20049;-62
2023/03/22 12:52:19;;;;;;;1.92;0.75;;;16.00;62.70;;;;;;5007176;28;20050;-70
2023/03/22 12:54:53;;;;;;;1.92;1.00;;;15.90;62.60;;;;;;5010932;28;20041;-69
2023/03/22 12:57:33;;;;;;;2.15;0.60;;;15.90;63.10;;;;;;5010979;28;20046;-70
2023/03/22 13:00:16;;;;;;;1.13;0.57;;;15.90;62.30;;;;;;5004971;28;20542;-70
2023/03/22 13:02:56;;;;;;;1.40;0.68;;;15.90;61.80;;;;;;5001807;28;20057;-69
2023/03/22 13:05:32;;;;;;;0.90;0.57;;;16.00;61.60;;;;;;5009846;28;20103;-64
2023/03/22 13:08:05;;;;;;;2.72;0.90;;;16.10;62.30;;;;;;5030174;28;20045;-64
2023/03/22 13:11:05;;;;;;;1.02;0.60;;;16.10;62.80;;;;;;5026327;28;20041;-69
2023/03/22 13:13:47;;;;;;;3.00;0.77;;;16.10;62.40;;;;;;5029306;28;20061;-70
2023/03/22 13:16:24;;;;;;;1.55;0.70;;;16.10;61.80;;;;;;5009918;28;20347;-71
2023/03/22 13:19:03;;;;;;;1.70;0.75;;;16.10;61.70;;;;;;5008757;28;20061;-70
2023/03/22 13:21:40;;;;;;;2.83;0.77;;;16.10;62.40;;;;;;5007077;28;20056;-64
2023/03/22 13:24:23;;;;;;;3.38;0.70;;;16.10;61.70;;;;;;5008774;28;20046;-65
2023/03/22 13:26:59;;;;;;;1.05;0.60;;;16.10;61.40;;;;;;5028395;28;20053;-63
2023/03/22 13:29:36;;;;;;;2.30;0.60;;;16.10;61.20;;;;;;5032783;28;20122;-62
2023/03/22 13:32:29;;;;;;;1.65;0.77;;;16.20;62.20;;;;;;5035045;28;20072;-62
2023/03/22 13:35:02;;;;;;;1.80;0.70;;;16.20;61.60;;;;;;5025261;28;20140;-62
2023/03/22 13:37:45;;;;;;;1.92;0.77;;;16.10;61.30;;;;;;5032945;28;20132;-62
2023/03/22 13:40:28;;;;;;;1.77;0.63;;;16.20;62.30;;;;;;5009583;28;20042;-63
2023/03/22 13:43:11;;;;;;;2.10;0.73;;;16.30;61.90;;;;;;5011503;28;20525;-61
2023/03/22 13:46:03;;;;;;;1.63;0.68;;;16.20;61.60;;;;;;5024536;28;20244;-65
2023/03/22 13:48:51;;;;;;;3.22;0.80;;;16.30;61.50;;;;;;5035161;28;20048;-65
2023/03/22 13:51:30;;;;;;;2.65;1.08;;;16.30;62.50;;;;;;5033497;28;20112;-64
2023/03/22 13:54:10;;;;;;;2.80;0.82;;;16.20;62.00;;;;;;5034000;28;20045;-64
2023/03/22 13:56:55;;;;;;;2.55;0.80;;;16.30;61.50;;;;;;5013633;28;20057;-63